sensor_id;sensor_type;location;lat;lon;timestamp;P1;durP1;ratioP1;P2;durP2;ratioP2
12129;SDS011;6128;59.340;18.040;2024-03-23T00:56:19;9.87;;;2.23;;
12129;SDS011;6128;59.340;18.040;2024-03-23T00:58:46;5.73;;;1.73;;
12129;SDS011;6128;59.340;18.040;2024-03-23T01:01:12;9.43;;;2.13;;
12129;SDS011;6128;59.340;18.040;2024-03-23T01:03:39;5.13;;;1.87;;
12129;SDS011;6128;59.340;18.040;2024-03-23T01:06:05;9.53;;;2.30;;
12129;SDS011;6128;59.340;18.040;2024-03-23T01:08:32;7.40;;;1.90;;
12129;SDS011;6128;59.340;18.040;2024-03-23T01:10:59;5.40;;;1.70;;
12129;SDS011;6128;59.340;18.040;2024-03-23T01:13:29;4.53;;;1.67;;
12129;SDS011;6128;59.340;18.040;2024-03-23T01:15:55;7.73;;;1.93;;
12129;SDS011;6128;59.340;18.040;2024-03-23T01:18:24;7.23;;;2.37;;
12129;SDS011;6128;59.340;18.040;2024-03-23T01:20:51;6.20;;;1.73;;
12129;SDS011;6128;59.340;18.040;2024-03-23T01:23:18;5.73;;;1.40;;
12129;SDS011;6128;59.340;18.040;2024-03-23T01:25:51;7.20;;;1.80;;
12129;SDS011;6128;59.340;18.040;2024-03-23T01:28:18;10.07;;;2.00;;
12129;SDS011;6128;59.340;18.040;2024-03-23T01:30:45;6.47;;;1.83;;
12129;SDS011;6128;59.340;18.040;2024-03-23T01:33:13;7.37;;;1.87;;
12129;SDS011;6128;59.340;18.040;2024-03-23T01:35:39;9.50;;;2.17;;
12129;SDS011;6128;59.340;18.040;2024-03-23T01:38:06;8.00;;;1.80;;
12129;SDS011;6128;59.340;18.040;2024-03-23T01:40:32;5.70;;;2.47;;
12129;SDS011;6128;59.340;18.040;2024-03-23T01:43:02;6.40;;;1.50;;
12129;SDS011;6128;59.340;18.040;2024-03-23T01:45:29;5.87;;;1.70;;
12129;SDS011;6128;59.340;18.040;2024-03-23T01:47:58;9.63;;;1.87;;
12129;SDS011;6128;59.340;18.040;2024-03-23T01:50:25;5.53;;;1.83;;
12129;SDS011;6128;59.340;18.040;2024-03-23T01:52:52;4.80;;;1.37;;
12129;SDS011;6128;59.340;18.040;2024-03-23T01:55:19;5.40;;;1.43;;
12129;SDS011;6128;59.340;18.040;2024-03-23T01:57:46;3.53;;;1.00;;
12129;SDS011;6128;59.340;18.040;2024-03-23T02:00:13;7.07;;;1.70;;
12129;SDS011;6128;59.340;18.040;2024-03-23T02:02:43;7.07;;;2.20;;
12129;SDS011;6128;59.340;18.040;2024-03-23T02:05:11;7.73;;;1.97;;
12129;SDS011;6128;59.340;18.040;2024-03-23T02:07:39;5.67;;;1.50;;
12129;SDS011;6128;59.340;18.040;2024-03-23T02:10:06;6.40;;;1.40;;
12129;SDS011;6128;59.340;18.040;2024-03-23T02:12:34;4.70;;;1.77;;
12129;SDS011;6128;59.340;18.040;2024-03-23T02:15:01;8.67;;;2.23;;
12129;SDS011;6128;59.340;18.040;2024-03-23T02:17:28;4.93;;;1.57;;
12129;SDS011;6128;59.340;18.040;2024-03-23T02:19:56;8.20;;;1.97;;
12129;SDS011;6128;59.340;18.040;2024-03-23T02:22:24;5.37;;;1.77;;
12129;SDS011;6128;59.340;18.040;2024-03-23T02:24:51;5.90;;;1.63;;
12129;SDS011;6128;59.340;18.040;2024-03-23T02:27:18;5.53;;;1.37;;
12129;SDS011;6128;59.340;18.040;2024-03-23T02:29:44;6.13;;;1.80;;
12129;SDS011;6128;59.340;18.040;2024-03-23T02:32:12;6.23;;;1.47;;
12129;SDS011;6128;59.340;18.040;2024-03-23T02:34:38;4.33;;;1.47;;
12129;SDS011;6128;59.340;18.040;2024-03-23T02:37:10;4.57;;;1.60;;
12129;SDS011;6128;59.340;18.040;2024-03-23T02:39:36;6.33;;;1.57;;
12129;SDS011;6128;59.340;18.040;2024-03-23T02:42:04;6.50;;;1.50;;
12129;SDS011;6128;59.340;18.040;2024-03-23T02:44:31;9.37;;;1.80;;
12129;SDS011;6128;59.340;18.040;2024-03-23T02:46:58;5.80;;;1.47;;
12129;SDS011;6128;59.340;18.040;2024-03-23T02:49:25;8.13;;;1.93;;
12129;SDS011;6128;59.340;18.040;2024-03-23T02:51:53;6.43;;;1.50;;
12129;SDS011;6128;59.340;18.040;2024-03-23T02:54:19;4.67;;;1.50;;
12129;SDS011;6128;59.340;18.040;2024-03-23T02:56:46;6.83;;;1.40;;
12129;SDS011;6128;59.340;18.040;2024-03-23T02:59:13;9.53;;;2.47;;
12129;SDS011;6128;59.340;18.040;2024-03-23T03:01:40;8.00;;;1.67;;
12129;SDS011;6128;59.340;18.040;2024-03-23T03:04:07;5.00;;;1.53;;
12129;SDS011;6128;59.340;18.040;2024-03-23T03:06:34;7.30;;;1.50;;
12129;SDS011;6128;59.340;18.040;2024-03-23T03:09:00;8.30;;;1.83;;
12129;SDS011;6128;59.340;18.040;2024-03-23T03:11:27;5.83;;;1.93;;
12129;SDS011;6128;59.340;18.040;2024-03-23T03:13:53;8.50;;;2.20;;
12129;SDS011;6128;59.340;18.040;2024-03-23T03:16:21;6.70;;;1.40;;
12129;SDS011;6128;59.340;18.040;2024-03-23T03:18:47;7.00;;;1.43;;
12129;SDS011;6128;59.340;18.040;2024-03-23T03:21:14;10.33;;;2.70;;
12129;SDS011;6128;59.340;18.040;2024-03-23T03:23:41;6.50;;;1.53;;
12129;SDS011;6128;59.340;18.040;2024-03-23T03:26:09;7.17;;;1.60;;
12129;SDS011;6128;59.340;18.040;2024-03-23T03:28:35;7.43;;;1.87;;
12129;SDS011;6128;59.340;18.040;2024-03-23T03:31:02;8.93;;;2.20;;
12129;SDS011;6128;59.340;18.040;2024-03-23T03:33:30;7.63;;;2.03;;
12129;SDS011;6128;59.340;18.040;2024-03-23T03:35:57;6.43;;;1.77;;
12129;SDS011;6128;59.340;18.040;2024-03-23T03:38:23;10.80;;;2.47;;
12129;SDS011;6128;59.340;18.040;2024-03-23T03:40:50;8.43;;;2.30;;
12129;SDS011;6128;59.340;18.040;2024-03-23T03:43:17;8.27;;;2.13;;
12129;SDS011;6128;59.340;18.040;2024-03-23T03:45:51;9.43;;;2.27;;
12129;SDS011;6128;59.340;18.040;2024-03-23T03:48:17;8.93;;;1.80;;
12129;SDS011;6128;59.340;18.040;2024-03-23T03:50:45;6.17;;;1.97;;
12129;SDS011;6128;59.340;18.040;2024-03-23T03:53:11;10.13;;;2.23;;
12129;SDS011;6128;59.340;18.040;2024-03-23T03:55:38;7.00;;;1.97;;
12129;SDS011;6128;59.340;18.040;2024-03-23T03:58:05;8.20;;;2.33;;
12129;SDS011;6128;59.340;18.040;2024-03-23T04:00:32;6.07;;;1.90;;
12129;SDS011;6128;59.340;18.040;2024-03-23T04:02:58;12.30;;;2.67;;
12129;SDS011;6128;59.340;18.040;2024-03-23T04:05:25;6.43;;;2.00;;
12129;SDS011;6128;59.340;18.040;2024-03-23T04:07:52;6.43;;;2.07;;
12129;SDS011;6128;59.340;18.040;2024-03-23T04:10:19;10.20;;;1.97;;
12129;SDS011;6128;59.340;18.040;2024-03-23T04:12:46;6.60;;;2.30;;
12129;SDS011;6128;59.340;18.040;2024-03-23T04:15:14;9.53;;;2.40;;
12129;SDS011;6128;59.340;18.040;2024-03-23T04:17:40;12.70;;;2.73;;
12129;SDS011;6128;59.340;18.040;2024-03-23T04:20:08;5.90;;;1.90;;
12129;SDS011;6128;59.340;18.040;2024-03-23T04:22:36;10.57;;;2.07;;
12129;SDS011;6128;59.340;18.040;2024-03-23T04:25:05;7.47;;;2.27;;
12129;SDS011;6128;59.340;18.040;2024-03-23T04:27:31;10.63;;;1.97;;
12129;SDS011;6128;59.340;18.040;2024-03-23T04:29:59;8.87;;;2.17;;
12129;SDS011;6128;59.340;18.040;2024-03-23T04:32:26;12.43;;;2.20;;
12129;SDS011;6128;59.340;18.040;2024-03-23T04:34:54;6.27;;;1.60;;
12129;SDS011;6128;59.340;18.040;2024-03-23T04:37:20;8.80;;;1.93;;
12129;SDS011;6128;59.340;18.040;2024-03-23T04:39:47;9.13;;;2.13;;
12129;SDS011;6128;59.340;18.040;2024-03-23T04:42:16;8.57;;;1.70;;
12129;SDS011;6128;59.340;18.040;2024-03-23T04:44:43;8.03;;;1.70;;
12129;SDS011;6128;59.340;18.040;2024-03-23T04:47:10;8.37;;;1.73;;
12129;SDS011;6128;59.340;18.040;2024-03-23T04:49:37;12.73;;;2.20;;
12129;SDS011;6128;59.340;18.040;2024-03-23T04:52:04;9.83;;;2.03;;
12129;SDS011;6128;59.340;18.040;2024-03-23T04:54:31;10.87;;;2.27;;
12129;SDS011;6128;59.340;18.040;2024-03-23T04:56:58;11.33;;;2.30;;
12129;SDS011;6128;59.340;18.040;2024-03-23T04:59:26;10.00;;;2.47;;
12129;SDS011;6128;59.340;18.040;2024-03-23T05:01:53;13.40;;;2.30;;
12129;SDS011;6128;59.340;18.040;2024-03-23T05:04:19;11.33;;;2.07;;
12129;SDS011;6128;59.340;18.040;2024-03-23T05:06:46;12.23;;;2.37;;
12129;SDS011;6128;59.340;18.040;2024-03-23T05:09:13;10.90;;;2.10;;
12129;SDS011;6128;59.340;18.040;2024-03-23T05:11:39;9.77;;;2.37;;
12129;SDS011;6128;59.340;18.040;2024-03-23T05:14:07;10.17;;;1.90;;
12129;SDS011;6128;59.340;18.040;2024-03-23T05:16:34;7.20;;;1.93;;
12129;SDS011;6128;59.340;18.040;2024-03-23T05:19:01;7.67;;;1.83;;
12129;SDS011;6128;59.340;18.040;2024-03-23T05:21:27;9.83;;;2.03;;
12129;SDS011;6128;59.340;18.040;2024-03-23T05:23:54;9.97;;;2.30;;
12129;SDS011;6128;59.340;18.040;2024-03-23T05:26:21;10.77;;;2.40;;
12129;SDS011;6128;59.340;18.040;2024-03-23T05:28:48;8.80;;;2.37;;
12129;SDS011;6128;59.340;18.040;2024-03-23T05:31:22;10.63;;;2.97;;
12129;SDS011;6128;59.340;18.040;2024-03-23T05:33:51;8.60;;;2.60;;
12129;SDS011;6128;59.340;18.040;2024-03-23T05:36:17;10.57;;;2.10;;
12129;SDS011;6128;59.340;18.040;2024-03-23T05:38:44;10.37;;;2.30;;
12129;SDS011;6128;59.340;18.040;2024-03-23T05:41:11;7.57;;;2.40;;
12129;SDS011;6128;59.340;18.040;2024-03-23T05:43:38;8.20;;;1.87;;
12129;SDS011;6128;59.340;18.040;2024-03-23T05:46:04;8.97;;;2.60;;
12129;SDS011;6128;59.340;18.040;2024-03-23T05:48:32;12.37;;;2.53;;
12129;SDS011;6128;59.340;18.040;2024-03-23T05:51:00;8.83;;;2.07;;
12129;SDS011;6128;59.340;18.040;2024-03-23T05:53:28;12.97;;;3.57;;
12129;SDS011;6128;59.340;18.040;2024-03-23T05:56:00;10.00;;;2.27;;
12129;SDS011;6128;59.340;18.040;2024-03-23T05:58:30;9.83;;;2.60;;
12129;SDS011;6128;59.340;18.040;2024-03-23T06:00:57;7.77;;;2.03;;
12129;SDS011;6128;59.340;18.040;2024-03-23T06:03:25;11.30;;;2.57;;
12129;SDS011;6128;59.340;18.040;2024-03-23T06:05:51;9.57;;;2.13;;
12129;SDS011;6128;59.340;18.040;2024-03-23T06:08:19;9.83;;;2.27;;
12129;SDS011;6128;59.340;18.040;2024-03-23T06:10:46;10.27;;;2.30;;
12129;SDS011;6128;59.340;18.040;2024-03-23T06:13:13;10.90;;;2.27;;
12129;SDS011;6128;59.340;18.040;2024-03-23T06:15:39;8.40;;;2.13;;
12129;SDS011;6128;59.340;18.040;2024-03-23T06:18:06;9.20;;;2.40;;
12129;SDS011;6128;59.340;18.040;2024-03-23T06:20:33;11.37;;;2.70;;
12129;SDS011;6128;59.340;18.040;2024-03-23T06:23:00;9.93;;;2.80;;
12129;SDS011;6128;59.340;18.040;2024-03-23T06:25:28;10.93;;;3.23;;
12129;SDS011;6128;59.340;18.040;2024-03-23T06:27:55;11.17;;;2.57;;
12129;SDS011;6128;59.340;18.040;2024-03-23T06:30:21;10.57;;;3.00;;
12129;SDS011;6128;59.340;18.040;2024-03-23T06:32:48;10.70;;;2.47;;
12129;SDS011;6128;59.340;18.040;2024-03-23T06:35:14;8.83;;;2.23;;
12129;SDS011;6128;59.340;18.040;2024-03-23T06:37:41;13.07;;;2.17;;
12129;SDS011;6128;59.340;18.040;2024-03-23T06:40:08;10.23;;;2.57;;
12129;SDS011;6128;59.340;18.040;2024-03-23T06:42:37;10.27;;;2.97;;
12129;SDS011;6128;59.340;18.040;2024-03-23T06:45:04;9.03;;;2.20;;
12129;SDS011;6128;59.340;18.040;2024-03-23T06:47:31;9.30;;;2.30;;
12129;SDS011;6128;59.340;18.040;2024-03-23T06:49:58;9.57;;;2.33;;
12129;SDS011;6128;59.340;18.040;2024-03-23T06:52:27;9.30;;;2.30;;
12129;SDS011;6128;59.340;18.040;2024-03-23T06:54:53;8.27;;;2.20;;
12129;SDS011;6128;59.340;18.040;2024-03-23T06:57:20;10.90;;;2.57;;
12129;SDS011;6128;59.340;18.040;2024-03-23T06:59:48;9.37;;;2.87;;
12129;SDS011;6128;59.340;18.040;2024-03-23T07:02:15;9.37;;;2.70;;
12129;SDS011;6128;59.340;18.040;2024-03-23T07:04:41;11.60;;;2.30;;
12129;SDS011;6128;59.340;18.040;2024-03-23T07:07:08;9.27;;;2.33;;
12129;SDS011;6128;59.340;18.040;2024-03-23T07:09:34;8.20;;;2.00;;
12129;SDS011;6128;59.340;18.040;2024-03-23T07:12:02;11.40;;;2.57;;
12129;SDS011;6128;59.340;18.040;2024-03-23T07:14:30;11.03;;;2.13;;
12129;SDS011;6128;59.340;18.040;2024-03-23T07:16:58;8.90;;;2.50;;
12129;SDS011;6128;59.340;18.040;2024-03-23T07:19:24;9.33;;;2.23;;
12129;SDS011;6128;59.340;18.040;2024-03-23T07:21:51;8.77;;;2.30;;
12129;SDS011;6128;59.340;18.040;2024-03-23T07:24:17;8.63;;;2.73;;
12129;SDS011;6128;59.340;18.040;2024-03-23T07:26:44;11.37;;;2.77;;
12129;SDS011;6128;59.340;18.040;2024-03-23T07:29:10;13.17;;;3.00;;
12129;SDS011;6128;59.340;18.040;2024-03-23T07:31:37;12.00;;;2.83;;
12129;SDS011;6128;59.340;18.040;2024-03-23T07:34:05;11.13;;;2.33;;
12129;SDS011;6128;59.340;18.040;2024-03-23T07:36:32;9.37;;;2.60;;
12129;SDS011;6128;59.340;18.040;2024-03-23T07:38:58;10.37;;;2.70;;
12129;SDS011;6128;59.340;18.040;2024-03-23T07:41:25;11.13;;;2.57;;
12129;SDS011;6128;59.340;18.040;2024-03-23T07:43:53;8.63;;;2.50;;
12129;SDS011;6128;59.340;18.040;2024-03-23T07:46:20;10.03;;;2.57;;
12129;SDS011;6128;59.340;18.040;2024-03-23T07:48:46;10.17;;;2.37;;
12129;SDS011;6128;59.340;18.040;2024-03-23T07:51:16;8.30;;;2.57;;
12129;SDS011;6128;59.340;18.040;2024-03-23T07:53:43;10.40;;;2.23;;
12129;SDS011;6128;59.340;18.040;2024-03-23T07:56:11;8.43;;;2.57;;
12129;SDS011;6128;59.340;18.040;2024-03-23T07:58:38;13.80;;;2.97;;
12129;SDS011;6128;59.340;18.040;2024-03-23T08:01:05;15.87;;;2.90;;
12129;SDS011;6128;59.340;18.040;2024-03-23T08:03:33;9.30;;;2.33;;
12129;SDS011;6128;59.340;18.040;2024-03-23T08:06:10;11.97;;;2.97;;
12129;SDS011;6128;59.340;18.040;2024-03-23T08:08:39;9.13;;;2.53;;
12129;SDS011;6128;59.340;18.040;2024-03-23T08:11:06;12.83;;;2.97;;
12129;SDS011;6128;59.340;18.040;2024-03-23T08:13:33;14.43;;;2.87;;
12129;SDS011;6128;59.340;18.040;2024-03-23T08:16:00;10.30;;;2.30;;
12129;SDS011;6128;59.340;18.040;2024-03-23T08:18:27;9.97;;;2.80;;
12129;SDS011;6128;59.340;18.040;2024-03-23T08:20:55;9.53;;;2.50;;
12129;SDS011;6128;59.340;18.040;2024-03-23T08:23:22;8.20;;;2.50;;
12129;SDS011;6128;59.340;18.040;2024-03-23T08:25:51;9.80;;;2.67;;
12129;SDS011;6128;59.340;18.040;2024-03-23T08:28:17;12.67;;;3.47;;
12129;SDS011;6128;59.340;18.040;2024-03-23T08:30:44;7.63;;;2.03;;
12129;SDS011;6128;59.340;18.040;2024-03-23T08:33:10;19.80;;;3.67;;
12129;SDS011;6128;59.340;18.040;2024-03-23T08:35:38;13.53;;;2.93;;
12129;SDS011;6128;59.340;18.040;2024-03-23T08:38:04;11.90;;;2.80;;
12129;SDS011;6128;59.340;18.040;2024-03-23T08:40:31;10.37;;;2.53;;
12129;SDS011;6128;59.340;18.040;2024-03-23T08:42:58;10.47;;;2.50;;
12129;SDS011;6128;59.340;18.040;2024-03-23T08:45:25;15.70;;;4.10;;
12129;SDS011;6128;59.340;18.040;2024-03-23T08:47:51;9.00;;;2.47;;
12129;SDS011;6128;59.340;18.040;2024-03-23T08:50:18;11.17;;;2.83;;
12129;SDS011;6128;59.340;18.040;2024-03-23T08:52:44;10.67;;;3.23;;
12129;SDS011;6128;59.340;18.040;2024-03-23T08:55:12;13.93;;;3.30;;
12129;SDS011;6128;59.340;18.040;2024-03-23T08:57:38;12.57;;;2.70;;
12129;SDS011;6128;59.340;18.040;2024-03-23T09:00:08;15.93;;;3.23;;
12129;SDS011;6128;59.340;18.040;2024-03-23T09:02:36;10.17;;;3.23;;
12129;SDS011;6128;59.340;18.040;2024-03-23T09:05:04;13.27;;;2.63;;
12129;SDS011;6128;59.340;18.040;2024-03-23T09:07:30;15.87;;;3.03;;
12129;SDS011;6128;59.340;18.040;2024-03-23T09:09:58;12.20;;;2.77;;
12129;SDS011;6128;59.340;18.040;2024-03-23T09:12:24;14.73;;;2.97;;
12129;SDS011;6128;59.340;18.040;2024-03-23T09:14:54;8.97;;;2.17;;
12129;SDS011;6128;59.340;18.040;2024-03-23T09:17:22;10.03;;;2.27;;
12129;SDS011;6128;59.340;18.040;2024-03-23T09:19:49;10.07;;;2.33;;
12129;SDS011;6128;59.340;18.040;2024-03-23T09:22:15;11.00;;;3.27;;
12129;SDS011;6128;59.340;18.040;2024-03-23T09:24:43;15.63;;;3.93;;
12129;SDS011;6128;59.340;18.040;2024-03-23T09:27:10;11.07;;;2.60;;
12129;SDS011;6128;59.340;18.040;2024-03-23T09:29:37;10.40;;;2.83;;
12129;SDS011;6128;59.340;18.040;2024-03-23T09:32:03;12.97;;;3.33;;
12129;SDS011;6128;59.340;18.040;2024-03-23T09:34:32;13.27;;;2.67;;
12129;SDS011;6128;59.340;18.040;2024-03-23T09:36:59;14.03;;;2.93;;
12129;SDS011;6128;59.340;18.040;2024-03-23T09:39:26;18.30;;;4.03;;
12129;SDS011;6128;59.340;18.040;2024-03-23T09:41:56;12.63;;;3.00;;
12129;SDS011;6128;59.340;18.040;2024-03-23T09:44:24;7.93;;;2.10;;
12129;SDS011;6128;59.340;18.040;2024-03-23T09:46:51;13.37;;;3.30;;
12129;SDS011;6128;59.340;18.040;2024-03-23T09:49:20;11.77;;;2.50;;
12129;SDS011;6128;59.340;18.040;2024-03-23T09:51:47;12.50;;;2.60;;
12129;SDS011;6128;59.340;18.040;2024-03-23T09:54:14;11.33;;;2.87;;
12129;SDS011;6128;59.340;18.040;2024-03-23T09:56:40;10.33;;;3.00;;
12129;SDS011;6128;59.340;18.040;2024-03-23T09:59:08;14.80;;;3.50;;
12129;SDS011;6128;59.340;18.040;2024-03-23T10:01:34;12.83;;;3.47;;
12129;SDS011;6128;59.340;18.040;2024-03-23T10:04:02;16.47;;;3.03;;
12129;SDS011;6128;59.340;18.040;2024-03-23T10:06:28;12.47;;;3.20;;
12129;SDS011;6128;59.340;18.040;2024-03-23T10:08:59;12.47;;;2.83;;
12129;SDS011;6128;59.340;18.040;2024-03-23T10:11:28;12.20;;;3.37;;
12129;SDS011;6128;59.340;18.040;2024-03-23T10:13:56;13.63;;;3.00;;
12129;SDS011;6128;59.340;18.040;2024-03-23T10:16:22;13.73;;;2.83;;
12129;SDS011;6128;59.340;18.040;2024-03-23T10:18:52;16.37;;;3.10;;
12129;SDS011;6128;59.340;18.040;2024-03-23T10:21:18;14.03;;;2.83;;
12129;SDS011;6128;59.340;18.040;2024-03-23T10:23:45;11.70;;;2.93;;
12129;SDS011;6128;59.340;18.040;2024-03-23T10:26:17;12.00;;;3.20;;
12129;SDS011;6128;59.340;18.040;2024-03-23T10:28:54;10.23;;;3.10;;
12129;SDS011;6128;59.340;18.040;2024-03-23T10:31:25;11.80;;;3.13;;
12129;SDS011;6128;59.340;18.040;2024-03-23T10:33:51;10.17;;;2.83;;
12129;SDS011;6128;59.340;18.040;2024-03-23T10:36:19;12.77;;;3.20;;
12129;SDS011;6128;59.340;18.040;2024-03-23T10:38:46;11.33;;;2.47;;
12129;SDS011;6128;59.340;18.040;2024-03-23T10:41:13;13.10;;;2.50;;
12129;SDS011;6128;59.340;18.040;2024-03-23T10:43:41;5.37;;;2.00;;
12129;SDS011;6128;59.340;18.040;2024-03-23T10:46:11;9.07;;;2.80;;
12129;SDS011;6128;59.340;18.040;2024-03-23T10:48:37;9.30;;;2.83;;
12129;SDS011;6128;59.340;18.040;2024-03-23T10:51:04;11.20;;;2.83;;
12129;SDS011;6128;59.340;18.040;2024-03-23T10:53:33;9.20;;;2.70;;
12129;SDS011;6128;59.340;18.040;2024-03-23T10:56:02;18.40;;;2.73;;
12129;SDS011;6128;59.340;18.040;2024-03-23T10:58:30;11.07;;;3.03;;
12129;SDS011;6128;59.340;18.040;2024-03-23T11:01:01;11.77;;;2.57;;
12129;SDS011;6128;59.340;18.040;2024-03-23T11:03:32;12.70;;;2.70;;
12129;SDS011;6128;59.340;18.040;2024-03-23T11:06:00;10.53;;;3.10;;
12129;SDS011;6128;59.340;18.040;2024-03-23T11:08:30;8.60;;;2.43;;
12129;SDS011;6128;59.340;18.040;2024-03-23T11:13:57;18.53;;;3.03;;
12129;SDS011;6128;59.340;18.040;2024-03-23T11:16:27;41.60;;;5.30;;
12129;SDS011;6128;59.340;18.040;2024-03-23T11:19:33;10.37;;;2.90;;
12129;SDS011;6128;59.340;18.040;2024-03-23T11:22:00;9.03;;;2.27;;
12129;SDS011;6128;59.340;18.040;2024-03-23T11:24:26;8.37;;;2.40;;
12129;SDS011;6128;59.340;18.040;2024-03-23T11:26:54;9.27;;;2.00;;
12129;SDS011;6128;59.340;18.040;2024-03-23T11:29:20;13.80;;;2.73;;
12129;SDS011;6128;59.340;18.040;2024-03-23T11:31:48;11.00;;;2.60;;
12129;SDS011;6128;59.340;18.040;2024-03-23T11:34:15;8.33;;;2.57;;
12129;SDS011;6128;59.340;18.040;2024-03-23T11:36:42;7.73;;;2.23;;
12129;SDS011;6128;59.340;18.040;2024-03-23T11:39:12;9.13;;;2.27;;
12129;SDS011;6128;59.340;18.040;2024-03-23T11:41:47;7.83;;;2.30;;
12129;SDS011;6128;59.340;18.040;2024-03-23T11:44:17;6.90;;;2.43;;
12129;SDS011;6128;59.340;18.040;2024-03-23T11:46:45;7.70;;;2.23;;
12129;SDS011;6128;59.340;18.040;2024-03-23T11:49:22;8.67;;;2.57;;
12129;SDS011;6128;59.340;18.040;2024-03-23T11:51:50;10.13;;;2.10;;
12129;SDS011;6128;59.340;18.040;2024-03-23T11:54:19;7.00;;;1.73;;
12129;SDS011;6128;59.340;18.040;2024-03-23T11:56:54;7.50;;;2.40;;
12129;SDS011;6128;59.340;18.040;2024-03-23T11:59:34;14.07;;;2.60;;
12129;SDS011;6128;59.340;18.040;2024-03-23T12:02:05;8.10;;;2.30;;
12129;SDS011;6128;59.340;18.040;2024-03-23T12:04:33;7.27;;;2.20;;
12129;SDS011;6128;59.340;18.040;2024-03-23T12:07:11;7.17;;;1.90;;
12129;SDS011;6128;59.340;18.040;2024-03-23T12:09:39;10.47;;;2.17;;
12129;SDS011;6128;59.340;18.040;2024-03-23T12:12:07;9.07;;;2.33;;
12129;SDS011;6128;59.340;18.040;2024-03-23T12:14:35;9.50;;;2.30;;
12129;SDS011;6128;59.340;18.040;2024-03-23T12:17:09;7.60;;;2.57;;
12129;SDS011;6128;59.340;18.040;2024-03-23T12:19:37;8.53;;;1.97;;
12129;SDS011;6128;59.340;18.040;2024-03-23T12:22:04;7.87;;;2.40;;
12129;SDS011;6128;59.340;18.040;2024-03-23T12:24:31;7.03;;;2.30;;
12129;SDS011;6128;59.340;18.040;2024-03-23T12:27:00;7.63;;;2.27;;
12129;SDS011;6128;59.340;18.040;2024-03-23T12:29:28;8.47;;;2.13;;
12129;SDS011;6128;59.340;18.040;2024-03-23T12:31:56;12.43;;;2.40;;
12129;SDS011;6128;59.340;18.040;2024-03-23T12:34:24;11.00;;;2.80;;
12129;SDS011;6128;59.340;18.040;2024-03-23T12:36:53;8.30;;;2.20;;
12129;SDS011;6128;59.340;18.040;2024-03-23T12:39:19;7.10;;;2.37;;
12129;SDS011;6128;59.340;18.040;2024-03-23T12:41:47;12.33;;;2.87;;
12129;SDS011;6128;59.340;18.040;2024-03-23T12:44:13;7.70;;;2.20;;
12129;SDS011;6128;59.340;18.040;2024-03-23T12:46:40;11.20;;;2.63;;
12129;SDS011;6128;59.340;18.040;2024-03-23T12:49:06;8.37;;;2.03;;
12129;SDS011;6128;59.340;18.040;2024-03-23T12:51:33;10.37;;;2.20;;
12129;SDS011;6128;59.340;18.040;2024-03-23T12:54:01;11.20;;;2.27;;
12129;SDS011;6128;59.340;18.040;2024-03-23T12:56:28;10.70;;;2.13;;
12129;SDS011;6128;59.340;18.040;2024-03-23T12:58:55;8.33;;;2.50;;
12129;SDS011;6128;59.340;18.040;2024-03-23T13:01:22;5.63;;;1.70;;
12129;SDS011;6128;59.340;18.040;2024-03-23T13:03:48;8.77;;;2.23;;
12129;SDS011;6128;59.340;18.040;2024-03-23T13:06:16;6.47;;;1.80;;
12129;SDS011;6128;59.340;18.040;2024-03-23T13:08:43;13.83;;;2.53;;
12129;SDS011;6128;59.340;18.040;2024-03-23T13:11:12;8.13;;;2.43;;
12129;SDS011;6128;59.340;18.040;2024-03-23T13:13:39;6.13;;;1.83;;
12129;SDS011;6128;59.340;18.040;2024-03-23T13:16:07;5.17;;;1.83;;
12129;SDS011;6128;59.340;18.040;2024-03-23T13:18:33;9.13;;;2.37;;
12129;SDS011;6128;59.340;18.040;2024-03-23T13:21:01;7.80;;;2.50;;
12129;SDS011;6128;59.340;18.040;2024-03-23T13:23:29;7.57;;;1.90;;
12129;SDS011;6128;59.340;18.040;2024-03-23T13:25:57;8.37;;;2.10;;
12129;SDS011;6128;59.340;18.040;2024-03-23T13:28:25;10.33;;;2.37;;
12129;SDS011;6128;59.340;18.040;2024-03-23T13:30:52;9.43;;;2.40;;
12129;SDS011;6128;59.340;18.040;2024-03-23T13:33:19;19.97;;;2.37;;
12129;SDS011;6128;59.340;18.040;2024-03-23T13:35:49;7.73;;;1.90;;
12129;SDS011;6128;59.340;18.040;2024-03-23T13:38:15;3.53;;;0.87;;
12129;SDS011;6128;59.340;18.040;2024-03-23T13:40:49;4.37;;;0.80;;
12129;SDS011;6128;59.340;18.040;2024-03-23T13:43:18;2.63;;;0.70;;
12129;SDS011;6128;59.340;18.040;2024-03-23T13:45:47;2.33;;;0.80;;
12129;SDS011;6128;59.340;18.040;2024-03-23T13:48:13;2.40;;;1.13;;
12129;SDS011;6128;59.340;18.040;2024-03-23T13:50:41;9.17;;;1.30;;
12129;SDS011;6128;59.340;18.040;2024-03-23T13:53:07;2.93;;;1.00;;
12129;SDS011;6128;59.340;18.040;2024-03-23T13:55:34;4.60;;;0.93;;
12129;SDS011;6128;59.340;18.040;2024-03-23T13:58:01;3.77;;;1.30;;
12129;SDS011;6128;59.340;18.040;2024-03-23T14:00:28;5.50;;;1.10;;
12129;SDS011;6128;59.340;18.040;2024-03-23T14:02:55;3.90;;;1.40;;
12129;SDS011;6128;59.340;18.040;2024-03-23T14:05:22;3.60;;;1.50;;
12129;SDS011;6128;59.340;18.040;2024-03-23T14:07:50;5.30;;;2.23;;
12129;SDS011;6128;59.340;18.040;2024-03-23T14:10:18;4.80;;;1.50;;
12129;SDS011;6128;59.340;18.040;2024-03-23T14:12:44;4.87;;;1.57;;
12129;SDS011;6128;59.340;18.040;2024-03-23T14:15:11;4.03;;;1.17;;
12129;SDS011;6128;59.340;18.040;2024-03-23T14:17:37;5.37;;;1.20;;
12129;SDS011;6128;59.340;18.040;2024-03-23T14:20:07;5.50;;;1.37;;
12129;SDS011;6128;59.340;18.040;2024-03-23T14:22:36;4.60;;;1.23;;
12129;SDS011;6128;59.340;18.040;2024-03-23T14:25:03;4.17;;;1.10;;
12129;SDS011;6128;59.340;18.040;2024-03-23T14:27:30;2.57;;;0.80;;
12129;SDS011;6128;59.340;18.040;2024-03-23T14:29:57;5.80;;;1.83;;
12129;SDS011;6128;59.340;18.040;2024-03-23T14:32:23;6.00;;;1.93;;
12129;SDS011;6128;59.340;18.040;2024-03-23T14:34:51;3.43;;;1.00;;
12129;SDS011;6128;59.340;18.040;2024-03-23T14:37:20;3.97;;;1.00;;
12129;SDS011;6128;59.340;18.040;2024-03-23T14:39:48;8.90;;;1.20;;
12129;SDS011;6128;59.340;18.040;2024-03-23T14:42:14;4.40;;;1.30;;
12129;SDS011;6128;59.340;18.040;2024-03-23T14:44:41;5.40;;;1.17;;
12129;SDS011;6128;59.340;18.040;2024-03-23T14:47:07;7.37;;;1.30;;
12129;SDS011;6128;59.340;18.040;2024-03-23T14:49:34;5.43;;;1.27;;
12129;SDS011;6128;59.340;18.040;2024-03-23T14:52:01;3.57;;;1.10;;
12129;SDS011;6128;59.340;18.040;2024-03-23T14:54:29;5.80;;;1.37;;
12129;SDS011;6128;59.340;18.040;2024-03-23T14:56:55;5.53;;;1.23;;
12129;SDS011;6128;59.340;18.040;2024-03-23T14:59:23;8.13;;;1.50;;
12129;SDS011;6128;59.340;18.040;2024-03-23T15:01:49;5.27;;;1.30;;
12129;SDS011;6128;59.340;18.040;2024-03-23T15:04:17;6.73;;;1.53;;
12129;SDS011;6128;59.340;18.040;2024-03-23T15:06:43;7.77;;;1.70;;
12129;SDS011;6128;59.340;18.040;2024-03-23T15:09:11;7.23;;;1.80;;
12129;SDS011;6128;59.340;18.040;2024-03-23T15:11:39;4.23;;;1.50;;
12129;SDS011;6128;59.340;18.040;2024-03-23T15:14:06;8.13;;;2.50;;
12129;SDS011;6128;59.340;18.040;2024-03-23T15:16:33;7.43;;;2.13;;
12129;SDS011;6128;59.340;18.040;2024-03-23T15:19:00;3.97;;;1.33;;
12129;SDS011;6128;59.340;18.040;2024-03-23T15:21:27;4.97;;;1.20;;
12129;SDS011;6128;59.340;18.040;2024-03-23T15:23:54;3.67;;;1.27;;
12129;SDS011;6128;59.340;18.040;2024-03-23T15:26:22;3.03;;;1.00;;
12129;SDS011;6128;59.340;18.040;2024-03-23T15:28:51;7.33;;;1.57;;
12129;SDS011;6128;59.340;18.040;2024-03-23T15:31:35;7.23;;;1.27;;
12129;SDS011;6128;59.340;18.040;2024-03-23T15:34:02;6.60;;;1.37;;
12129;SDS011;6128;59.340;18.040;2024-03-23T15:36:29;6.23;;;2.33;;
12129;SDS011;6128;59.340;18.040;2024-03-23T15:38:56;5.07;;;1.57;;
12129;SDS011;6128;59.340;18.040;2024-03-23T15:41:22;8.27;;;1.63;;
12129;SDS011;6128;59.340;18.040;2024-03-23T15:43:49;7.47;;;1.50;;